Time;durP1;ratioP1;P1;durP2;ratioP2;P2;SDS_P1;SDS_P2;PMS_P1;PMS_P2;Temp;Humidity;BMP_temperature;BMP_pressure;BME280_temperature;BME280_humidity;BME280_pressure;Samples;Min_cycle;Max_cycle;Signal;HPM_P1;HPM_P2
2021/06/27 00:01:21;;;;;;;;;15.00;11.25;;;;;20.95;61.54;100972.28;5054420;28;45369;-69
2021/06/27 00:03:47;;;;;;;;;19.00;18.25;;;;;20.97;61.28;100973.03;5054118;28;45641;-69
2021/06/27 00:06:13;;;;;;;;;14.00;14.00;;;;;21.01;61.03;100976.34;5054881;28;46027;-70
2021/06/27 00:08:38;;;;;;;;;18.25;14.25;;;;;21.03;61.08;100986.94;5053863;28;45547;-69
2021/06/27 00:11:06;;;;;;;;;13.75;12.75;;;;;21.04;61.16;100984.16;5054111;28;45509;-69
2021/06/27 00:13:33;;;;;;;;;15.50;13.50;;;;;21.03;61.55;100993.09;5053791;28;45461;-69
2021/06/27 00:15:59;;;;;;;;;18.75;16.00;;;;;21.06;61.99;101003.56;5053923;28;46990;-70
2021/06/27 00:18:26;;;;;;;;;16.50;16.25;;;;;21.06;61.58;100997.38;5054358;28;45208;-70
2021/06/27 00:20:55;;;;;;;;;15.75;14.75;;;;;21.07;62.06;100991.09;5054984;28;45373;-69
2021/06/27 00:23:24;;;;;;;;;14.50;14.50;;;;;21.07;61.86;100989.31;5054247;28;46258;-69
2021/06/27 00:25:50;;;;;;;;;14.50;14.50;;;;;21.07;62.25;100994.63;5053854;28;47899;-69
2021/06/27 00:28:16;;;;;;;;;14.75;13.00;;;;;21.08;61.58;100991.00;5054016;28;45337;-70
2021/06/27 00:30:44;;;;;;;;;14.25;13.75;;;;;21.08;61.76;100984.84;5054217;28;45536;-71
2021/06/27 00:33:10;;;;;;;;;16.00;13.25;;;;;21.09;62.31;101006.03;5054169;28;45586;-70
2021/06/27 00:35:35;;;;;;;;;15.50;13.00;;;;;21.09;61.88;101014.00;5053583;28;46882;-69
2021/06/27 00:38:00;;;;;;;;;16.75;14.00;;;;;21.10;62.05;101007.75;5057105;28;45335;-69
2021/06/27 00:40:27;;;;;;;;;18.75;16.50;;;;;21.11;62.60;100996.13;5057934;28;45292;-70
2021/06/27 00:42:54;;;;;;;;;18.50;16.50;;;;;21.10;62.44;101004.25;5056222;28;45302;-70
2021/06/27 00:45:22;;;;;;;;;17.75;16.25;;;;;21.09;62.75;101008.69;5057854;28;46140;-70
2021/06/27 00:47:47;;;;;;;;;17.00;14.25;;;;;21.10;62.50;101021.06;5057176;28;45570;-70
2021/06/27 00:50:16;;;;;;;;;14.00;12.75;;;;;21.08;63.20;101020.28;5057609;28;45366;-69
2021/06/27 00:52:41;;;;;;;;;17.50;16.25;;;;;21.04;62.90;101008.09;5057840;28;45581;-69
2021/06/27 00:55:08;;;;;;;;;17.00;15.25;;;;;21.04;63.42;101005.44;5057110;28;45583;-70
2021/06/27 00:57:34;;;;;;;;;17.75;17.75;;;;;21.00;63.37;101012.78;5057546;28;45451;-69
2021/06/27 01:00:03;;;;;;;;;18.25;15.00;;;;;21.00;63.33;101010.09;5057271;28;45323;-69
2021/06/27 01:02:28;;;;;;;;;16.50;16.50;;;;;21.00;63.32;101001.28;5055796;28;45457;-68
2021/06/27 01:04:54;;;;;;;;;16.75;14.75;;;;;20.99;63.31;101004.88;5056814;28;45970;-69
2021/06/27 01:07:19;;;;;;;;;18.00;15.25;;;;;21.01;63.61;101000.31;5056858;28;45477;-69
2021/06/27 01:09:44;;;;;;;;;16.75;13.50;;;;;21.01;63.68;101000.31;5055718;28;45579;-69
2021/06/27 01:12:10;;;;;;;;;18.50;16.75;;;;;21.00;63.97;100988.81;5057798;28;45308;-68
2021/06/27 01:14:35;;;;;;;;;17.50;17.50;;;;;20.98;64.05;100969.41;5056643;28;46070;-69
2021/06/27 01:17:00;;;;;;;;;16.25;15.00;;;;;20.95;64.12;100939.47;5056373;28;45445;-69
2021/06/27 01:19:33;;;;;;;;;17.75;16.75;;;;;20.91;64.15;100935.28;5057338;28;45394;-69
2021/06/27 01:21:59;;;;;;;;;14.75;14.50;;;;;20.87;63.94;100945.25;5057475;28;45393;-68
2021/06/27 01:24:26;;;;;;;;;16.00;13.50;;;;;20.84;64.13;100953.41;5057103;28;46177;-69
2021/06/27 01:26:51;;;;;;;;;14.75;13.50;;;;;20.80;64.45;100957.22;5057248;28;45331;-69
2021/06/27 01:29:17;;;;;;;;;14.00;13.00;;;;;20.76;64.26;100956.53;5056623;28;45540;-69
2021/06/27 01:31:44;;;;;;;;;17.25;16.25;;;;;20.75;64.79;100961.94;5056524;28;45498;-69
2021/06/27 01:34:11;;;;;;;;;19.75;17.25;;;;;20.72;65.07;100963.00;5056652;28;47158;-70
2021/06/27 01:36:37;;;;;;;;;18.00;15.00;;;;;20.70;65.26;100954.22;5057108;28;45465;-68
2021/06/27 01:39:03;;;;;;;;;15.25;15.00;;;;;20.67;65.40;100951.78;5052873;28;45772;-69
2021/06/27 01:41:28;;;;;;;;;18.50;17.25;;;;;20.61;65.32;100946.78;5054210;28;47671;-68
2021/06/27 01:43:53;;;;;;;;;17.00;16.75;;;;;20.58;64.92;100939.84;5056844;28;45489;-68
2021/06/27 01:46:19;;;;;;;;;16.00;16.00;;;;;20.57;65.68;100946.13;5056702;28;45354;-71
2021/06/27 01:48:45;;;;;;;;;14.00;14.00;;;;;20.56;65.71;100954.19;5056233;28;45428;-69
2021/06/27 01:51:11;;;;;;;;;18.75;18.75;;;;;20.56;65.94;100952.38;5057616;28;45420;-69
2021/06/27 01:53:38;;;;;;;;;16.25;16.25;;;;;20.54;65.43;100954.25;5056540;28;46418;-68
2021/06/27 01:56:05;;;;;;;;;16.50;15.00;;;;;20.53;65.21;100938.38;5056447;28;45480;-68
2021/06/27 01:58:41;;;;;;;;;15.75;15.75;;;;;20.52;65.48;100924.25;5056573;28;45449;-68
2021/06/27 02:01:10;;;;;;;;;19.50;17.75;;;;;20.49;65.65;100924.41;5056142;28;45332;-69
2021/06/27 02:03:36;;;;;;;;;16.75;16.75;;;;;20.47;65.22;100934.28;5056212;28;46424;-69
2021/06/27 02:06:02;;;;;;;;;28.75;23.25;;;;;20.46;65.69;100929.91;5057100;28;45318;-68
2021/06/27 02:08:33;;;;;;;;;9.50;9.50;;;;;20.43;66.10;100935.41;5056549;28;45407;-68
2021/06/27 02:10:58;;;;;;;;;22.75;18.50;;;;;20.41;65.97;100932.00;5056522;28;45366;-69
2021/06/27 02:13:24;;;;;;;;;23.00;20.75;;;;;20.39;66.04;100922.38;5056417;28;45365;-68
2021/06/27 02:15:49;;;;;;;;;20.50;20.50;;;;;20.37;66.04;100911.84;5056338;28;45334;-68
2021/06/27 02:18:34;;;;;;;;;14.25;13.25;;;;;20.37;66.50;100904.69;5056797;28;53474;-68
2021/06/27 02:21:06;;;;;;;;;22.00;19.75;;;;;20.38;66.39;100902.94;5055435;28;45512;-68
2021/06/27 02:23:32;;;;;;;;;19.50;19.00;;;;;20.40;66.63;100900.16;5056215;28;46139;-69
2021/06/27 02:25:59;;;;;;;;;18.50;17.00;;;;;20.40;66.41;100893.03;5056040;28;45430;-69
2021/06/27 02:28:24;;;;;;;;;18.50;17.25;;;;;20.39;66.19;100888.69;5056198;28;45398;-68
2021/06/27 02:30:51;;;;;;;;;12.75;12.75;;;;;20.39;66.73;100883.34;5039506;28;45521;-69
2021/06/27 02:33:17;;;;;;;;;15.75;14.75;;;;;20.37;66.98;100870.16;5056772;28;46320;-69
2021/06/27 02:35:43;;;;;;;;;18.75;15.50;;;;;20.35;66.36;100857.88;5055877;28;45483;-68
2021/06/27 02:38:09;;;;;;;;;17.50;16.25;;;;;20.35;66.66;100861.44;5055800;28;45406;-68
2021/06/27 02:40:35;;;;;;;;;20.75;18.75;;;;;20.34;66.69;100851.72;5055970;28;45576;-68
2021/06/27 02:43:00;;;;;;;;;18.00;17.75;;;;;20.34;66.66;100858.84;5055590;28;46187;-67
2021/06/27 02:45:26;;;;;;;;;18.25;17.25;;;;;20.32;66.38;100842.13;5056360;28;45283;-69
2021/06/27 02:47:51;;;;;;;;;19.00;17.25;;;;;20.32;66.77;100842.97;5056343;28;45639;-68
2021/06/27 02:50:17;;;;;;;;;20.25;18.25;;;;;20.32;66.73;100842.13;5055555;28;45611;-68
2021/06/27 02:52:43;;;;;;;;;18.00;15.50;;;;;20.30;66.88;100831.56;5055748;28;45389;-69
2021/06/27 02:55:11;;;;;;;;;19.50;19.00;;;;;20.30;66.24;100825.41;5055745;28;45377;-69
2021/06/27 02:57:38;;;;;;;;;20.00;15.50;;;;;20.28;66.68;100824.63;5055573;28;45373;-68
2021/06/27 03:00:06;;;;;;;;;22.00;18.50;;;;;20.26;66.91;100824.75;5055095;28;45380;-68
2021/06/27 03:02:32;;;;;;;;;24.75;19.75;;;;;20.26;66.31;100814.13;5055121;28;47743;-68
2021/06/27 03:04:57;;;;;;;;;21.00;17.75;;;;;20.26;66.20;100822.09;5055530;28;45430;-69
2021/06/27 03:07:22;;;;;;;;;24.00;20.50;;;;;20.28;66.85;100832.63;5055715;28;45426;-69
2021/06/27 03:09:48;;;;;;;;;20.00;18.25;;;;;20.26;66.31;100821.22;5055548;28;45586;-68
2021/06/27 03:12:14;;;;;;;;;15.75;15.50;;;;;20.26;66.77;100810.56;5055424;28;45581;-68
2021/06/27 03:14:39;;;;;;;;;19.50;18.25;;;;;20.25;66.42;100804.41;5055078;28;45536;-68
2021/06/27 03:17:05;;;;;;;;;44.00;36.75;;;;;20.26;67.11;100807.91;5054055;28;45470;-68
2021/06/27 03:19:30;;;;;;;;;29.25;25.50;;;;;20.25;67.05;100809.72;5055099;28;45487;-68
2021/06/27 03:21:55;;;;;;;;;27.75;24.50;;;;;20.27;67.46;100817.63;5055268;28;46186;-68
2021/06/27 03:24:21;;;;;;;;;46.75;37.00;;;;;20.25;66.89;100817.69;5055793;28;45366;-68
2021/06/27 03:26:46;;;;;;;;;26.75;24.00;;;;;20.24;67.36;100823.97;5054566;28;45461;-69
2021/06/27 03:29:12;;;;;;;;;17.75;17.00;;;;;20.25;67.24;100833.66;5055254;28;45514;-68
2021/06/27 03:31:37;;;;;;;;;20.00;18.75;;;;;20.22;67.01;100819.69;5055013;28;45375;-68
2021/06/27 03:34:03;;;;;;;;;17.75;15.75;;;;;20.19;67.04;100820.75;5055429;28;45415;-68
2021/06/27 03:36:28;;;;;;;;;18.75;16.50;;;;;20.19;67.12;100831.38;5055703;28;45338;-69
2021/06/27 03:39:06;;;;;;;;;19.50;18.25;;;;;20.19;67.26;100831.38;5055019;28;45486;-68
2021/06/27 03:41:36;;;;;;;;;16.00;16.00;;;;;20.16;67.15;100828.88;5054508;28;45512;-69
2021/06/27 03:44:02;;;;;;;;;18.00;17.00;;;;;20.14;66.98;100821.00;5054941;28;45358;-68
2021/06/27 03:46:28;;;;;;;;;20.25;16.75;;;;;20.14;67.08;100809.50;5054876;28;45442;-68
2021/06/27 03:48:53;;;;;;;;;18.75;17.75;;;;;20.13;67.17;100806.00;5055067;28;45269;-68
2021/06/27 03:51:18;;;;;;;;;20.50;18.25;;;;;20.13;67.69;100798.03;5055478;28;46031;-68
2021/06/27 03:53:44;;;;;;;;;22.25;19.00;;;;;20.12;67.21;100803.44;5054366;28;45743;-68
2021/06/27 03:56:10;;;;;;;;;16.75;16.75;;;;;20.12;67.31;100811.41;5054485;28;45189;-68
2021/06/27 03:58:35;;;;;;;;;22.25;18.75;;;;;20.12;67.62;100822.06;5055042;28;45380;-68
2021/06/27 04:01:01;;;;;;;;;20.00;19.00;;;;;20.14;67.46;100829.00;5054878;28;45510;-68
2021/06/27 04:03:26;;;;;;;;;19.50;18.50;;;;;20.18;67.32;100828.78;5055179;28;45894;-68
2021/06/27 04:05:52;;;;;;;;;19.25;18.25;;;;;20.17;67.41;100832.41;5054085;28;45441;-68
2021/06/27 04:08:17;;;;;;;;;18.75;15.25;;;;;20.11;67.39;100831.81;5054555;28;45473;-68
2021/06/27 04:10:43;;;;;;;;;16.00;14.50;;;;;20.06;67.63;100828.56;5053837;28;46670;-68
2021/06/27 04:13:08;;;;;;;;;16.50;16.50;;;;;20.03;67.96;100817.28;5054423;28;45512;-68
2021/06/27 04:15:33;;;;;;;;;20.50;16.00;;;;;19.99;67.61;100816.56;5054722;28;45362;-68
2021/06/27 04:17:59;;;;;;;;;19.00;17.75;;;;;19.99;67.91;100819.25;5055321;28;45513;-67
2021/06/27 04:20:24;;;;;;;;;19.50;18.25;;;;;19.94;67.58;100824.81;5054346;28;46278;-69
2021/06/27 04:22:49;;;;;;;;;18.00;16.75;;;;;19.92;67.66;100829.34;5054290;28;45479;-69
2021/06/27 04:25:15;;;;;;;;;18.50;18.50;;;;;19.94;67.35;100831.94;5054405;28;45358;-68
2021/06/27 04:27:40;;;;;;;;;19.50;17.75;;;;;19.94;67.33;100832.78;5054535;28;45425;-68
2021/06/27 04:30:07;;;;;;;;;19.25;19.25;;;;;19.97;67.61;100828.25;5054715;28;46363;-68
2021/06/27 04:32:33;;;;;;;;;20.75;18.25;;;;;19.99;67.16;100821.03;5054298;28;45502;-68
2021/06/27 04:34:58;;;;;;;;;20.50;18.75;;;;;19.99;67.05;100821.91;5054488;28;45591;-68
2021/06/27 04:37:24;;;;;;;;;19.75;19.50;;;;;20.00;67.39;100826.28;5054595;28;45489;-68
2021/06/27 04:39:49;;;;;;;;;18.50;17.25;;;;;20.01;67.74;100830.63;5053817;28;45941;-69
2021/06/27 04:42:14;;;;;;;;;20.00;19.75;;;;;20.06;67.61;100831.22;5053669;28;45470;-69
2021/06/27 04:44:40;;;;;;;;;25.00;21.00;;;;;20.11;67.48;100828.28;5054339;28;46981;-68
2021/06/27 04:47:09;;;;;;;;;17.50;15.50;;;;;20.15;67.31;100827.19;5053575;28;45591;-68
2021/06/27 04:49:37;;;;;;;;;22.00;19.50;;;;;20.17;67.09;100824.44;5053350;28;47000;-68
2021/06/27 04:52:03;;;;;;;;;24.00;20.50;;;;;20.20;67.38;100825.09;5053623;28;45315;-69
2021/06/27 04:54:28;;;;;;;;;24.75;20.75;;;;;20.21;67.42;100818.81;5053623;28;45284;-69
2021/06/27 04:56:53;;;;;;;;;19.75;19.75;;;;;20.22;67.35;100828.53;5054429;28;45468;-68
2021/06/27 04:59:19;;;;;;;;;18.50;17.50;;;;;20.26;67.67;100832.72;5053605;28;46202;-68
2021/06/27 05:01:44;;;;;;;;;19.75;18.00;;;;;20.28;66.92;100830.81;5053843;28;45394;-68
2021/06/27 05:04:09;;;;;;;;;22.00;19.50;;;;;20.30;67.08;100830.72;5054034;28;45414;-69
2021/06/27 05:06:35;;;;;;;;;19.00;16.50;;;;;20.30;66.72;100818.28;5054089;28;45442;-68
2021/06/27 05:09:00;;;;;;;;;20.75;20.75;;;;;20.33;66.68;100826.09;5053619;28;45652;-68
2021/06/27 05:11:25;;;;;;;;;19.25;18.25;;;;;20.34;66.60;100825.13;5051773;28;45208;-68
2021/06/27 05:13:51;;;;;;;;;21.25;19.75;;;;;20.35;66.99;100826.88;5053809;28;45367;-68
2021/06/27 05:16:16;;;;;;;;;20.00;19.00;;;;;20.35;66.84;100820.66;5053883;28;45440;-68
2021/06/27 05:18:41;;;;;;;;;21.50;19.25;;;;;20.34;67.04;100816.31;5053353;28;47026;-68
2021/06/27 05:21:08;;;;;;;;;19.75;19.75;;;;;20.36;67.30;100823.25;5052716;28;45661;-68
2021/06/27 05:23:33;;;;;;;;;19.00;18.00;;;;;20.39;66.86;100816.88;5053838;28;45393;-68
2021/06/27 05:25:58;;;;;;;;;20.00;18.00;;;;;20.43;66.70;100813.09;5057122;28;45464;-68
2021/06/27 05:28:24;;;;;;;;;16.50;16.00;;;;;20.44;66.67;100809.47;5056766;28;46003;-68
2021/06/27 05:30:49;;;;;;;;;17.50;17.50;;;;;20.48;67.03;100810.16;5056968;28;45304;-69
2021/06/27 05:33:14;;;;;;;;;21.25;18.75;;;;;20.50;66.53;100816.25;5056460;28;45375;-68
2021/06/27 05:35:40;;;;;;;;;12.75;12.75;;;;;20.52;67.16;100819.66;5055111;28;45492;-69
2021/06/27 05:38:05;;;;;;;;;20.50;19.00;;;;;20.53;66.66;100819.56;5056365;28;45568;-68
2021/06/27 05:40:31;;;;;;;;;20.00;16.50;;;;;20.55;66.58;100814.16;5056533;28;45475;-68
2021/06/27 05:42:56;;;;;;;;;15.50;15.50;;;;;20.56;66.18;100813.25;5056632;28;45356;-68
2021/06/27 05:45:22;;;;;;;;;23.00;22.50;;;;;20.56;66.30;100818.56;5057043;28;45233;-68
2021/06/27 05:47:47;;;;;;;;;19.00;17.25;;;;;20.58;66.38;100827.31;5056288;28;45362;-68
2021/06/27 05:50:13;;;;;;;;;22.25;22.25;;;;;20.60;66.04;100824.56;5056475;28;45323;-68
2021/06/27 05:52:38;;;;;;;;;21.00;18.25;;;;;20.60;66.28;100812.13;5055656;28;45735;-68
2021/06/27 05:55:05;;;;;;;;;22.00;20.75;;;;;20.64;66.64;100813.66;5055871;28;45547;-68
2021/06/27 05:57:30;;;;;;;;;30.25;23.50;;;;;20.67;66.51;100809.94;5055655;28;47493;-68
2021/06/27 05:59:55;;;;;;;;;24.25;21.75;;;;;20.71;66.22;100809.66;5056442;28;45472;-68
2021/06/27 06:02:21;;;;;;;;;19.25;18.75;;;;;20.74;65.91;100813.94;5055473;28;45415;-68
2021/06/27 06:04:46;;;;;;;;;24.25;22.00;;;;;20.74;66.50;100814.78;5054214;28;45583;-68
2021/06/27 06:07:11;;;;;;;;;19.75;17.25;;;;;20.73;65.87;100813.06;5055496;28;46430;-69
2021/06/27 06:09:37;;;;;;;;;19.50;18.25;;;;;20.71;65.97;100811.44;5055732;28;45564;-68
2021/06/27 06:12:02;;;;;;;;;17.75;17.75;;;;;20.73;65.81;100820.19;5056478;28;45500;-68
2021/06/27 06:14:28;;;;;;;;;23.00;20.00;;;;;20.73;65.77;100815.72;5055878;28;45480;-68
2021/06/27 06:16:53;;;;;;;;;20.25;19.00;;;;;20.76;65.40;100818.22;5055447;28;46062;-68
2021/06/27 06:19:20;;;;;;;;;21.00;20.25;;;;;20.80;65.49;100818.84;5055878;28;45344;-70
2021/06/27 06:21:47;;;;;;;;;20.00;20.00;;;;;20.84;65.37;100822.19;5055859;28;45275;-70
2021/06/27 06:24:13;;;;;;;;;19.25;19.25;;;;;20.85;65.37;100818.56;5056518;28;45259;-70
2021/06/27 06:26:39;;;;;;;;;18.25;17.75;;;;;20.89;65.57;100820.09;5055548;28;46137;-70
2021/06/27 06:29:04;;;;;;;;;17.50;15.50;;;;;20.92;65.88;100822.56;5055237;28;45394;-70
2021/06/27 06:31:30;;;;;;;;;22.25;20.50;;;;;20.93;65.13;100813.66;5056074;28;45584;-70
2021/06/27 06:33:56;;;;;;;;;16.25;15.25;;;;;20.97;65.47;100818.69;5055685;28;45371;-70
2021/06/27 06:36:21;;;;;;;;;23.50;21.25;;;;;21.03;65.52;100817.44;5055501;28;46184;-70
2021/06/27 06:38:47;;;;;;;;;23.75;23.75;;;;;21.03;65.31;100812.13;5055051;28;45382;-70
2021/06/27 06:41:12;;;;;;;;;23.75;22.25;;;;;21.03;65.16;100817.44;5055308;28;45482;-69
2021/06/27 06:43:37;;;;;;;;;28.75;27.75;;;;;21.06;65.58;100822.56;5055070;28;45346;-68
2021/06/27 06:46:03;;;;;;;;;23.00;23.00;;;;;21.11;65.40;100824.94;5055274;28;45925;-68
2021/06/27 06:48:28;;;;;;;;;19.75;18.25;;;;;21.16;65.20;100822.84;5054970;28;45419;-68
2021/06/27 06:50:54;;;;;;;;;25.25;24.00;;;;;21.20;65.21;100814.56;5054613;28;45451;-69
2021/06/27 06:53:19;;;;;;;;;24.00;22.75;;;;;21.25;65.39;100819.59;5054721;28;45473;-69
2021/06/27 06:55:45;;;;;;;;;21.00;19.50;;;;;21.33;65.07;100824.41;5055109;28;46135;-69
2021/06/27 06:58:10;;;;;;;;;26.00;22.00;;;;;21.40;64.63;100823.97;5055013;28;45533;-69
2021/06/27 07:00:36;;;;;;;;;29.75;21.25;;;;;21.49;64.58;100830.50;5055067;28;45405;-69
2021/06/27 07:03:02;;;;;;;;;21.25;21.25;;;;;21.56;64.40;100829.16;5055252;28;45598;-69
2021/06/27 07:05:27;;;;;;;;;24.75;24.75;;;;;21.60;64.36;100832.50;5054034;28;47123;-69
2021/06/27 07:07:53;;;;;;;;;20.75;18.50;;;;;21.66;63.93;100831.22;5054202;28;45542;-68
2021/06/27 07:10:18;;;;;;;;;23.50;21.00;;;;;21.74;63.81;100828.94;5054851;28;45363;-69
2021/06/27 07:12:44;;;;;;;;;22.75;17.75;;;;;21.81;63.68;100825.75;5054756;28;47376;-69
2021/06/27 07:15:10;;;;;;;;;26.00;20.25;;;;;21.89;63.60;100829.72;5055180;28;46008;-69
2021/06/27 07:17:36;;;;;;;;;23.75;22.25;;;;;21.96;63.06;100831.03;5054727;28;45249;-69
2021/06/27 07:20:01;;;;;;;;;21.00;20.25;;;;;22.02;62.94;100833.25;5054080;28;45381;-69
2021/06/27 07:22:26;;;;;;;;;17.50;17.00;;;;;22.05;62.67;100825.09;5054404;28;45491;-69
2021/06/27 07:24:52;;;;;;;;;31.00;28.00;;;;;22.11;62.41;100832.66;5054566;28;45607;-69
2021/06/27 07:27:17;;;;;;;;;19.00;17.50;;;;;22.20;62.47;100833.84;5054771;28;45396;-69
2021/06/27 07:29:42;;;;;;;;;24.75;24.00;;;;;22.32;61.86;100826.88;5054218;28;45588;-69
2021/06/27 07:32:08;;;;;;;;;12.00;10.50;;;;;22.44;61.67;100832.22;5054236;28;45461;-69
2021/06/27 07:34:33;;;;;;;;;20.50;18.25;;;;;22.57;61.16;100828.69;5052071;28;46160;-69
2021/06/27 07:37:00;;;;;;;;;25.75;24.25;;;;;22.73;61.34;100832.00;5054375;28;45357;-70
2021/06/27 07:39:25;;;;;;;;;20.00;19.25;;;;;22.83;60.20;100822.38;5054634;28;45348;-70
2021/06/27 07:41:50;;;;;;;;;20.75;18.50;;;;;22.92;60.03;100818.22;5054115;28;45442;-69
2021/06/27 07:44:16;;;;;;;;;21.75;21.00;;;;;22.99;59.79;100821.34;5053710;28;46053;-70
2021/06/27 07:46:41;;;;;;;;;20.25;18.50;;;;;23.03;59.03;100821.03;5053034;28;45344;-69
2021/06/27 07:49:06;;;;;;;;;22.00;21.00;;;;;23.09;58.75;100814.38;5053630;28;45429;-70
2021/06/27 07:51:32;;;;;;;;;18.75;17.50;;;;;23.18;58.72;100807.53;5053729;28;45241;-70
2021/06/27 07:53:57;;;;;;;;;19.25;18.50;;;;;23.23;58.05;100806.25;5052438;28;47045;-70
2021/06/27 07:56:22;;;;;;;;;20.25;20.25;;;;;23.29;58.39;100800.47;5053993;28;45443;-70
2021/06/27 07:58:48;;;;;;;;;19.00;18.50;;;;;23.42;57.54;100805.75;5053722;28;45367;-69
2021/06/27 08:01:13;;;;;;;;;19.75;19.75;;;;;23.54;57.63;100793.31;5053965;28;45338;-70
2021/06/27 08:03:38;;;;;;;;;24.25;23.25;;;;;23.66;57.21;100802.25;5052947;28;46380;-70
2021/06/27 08:06:04;;;;;;;;;17.50;15.50;;;;;23.76;56.90;100794.41;5054159;28;45339;-70
2021/06/27 08:08:29;;;;;;;;;20.00;17.75;;;;;23.85;56.73;100796.41;5049290;28;45498;-70
2021/06/27 08:10:54;;;;;;;;;16.00;16.00;;;;;23.89;55.40;100792.53;5049749;28;45517;-68
2021/06/27 08:13:20;;;;;;;;;20.00;18.25;;;;;23.89;55.94;100795.22;5052770;28;46263;-69
2021/06/27 08:15:46;;;;;;;;;21.00;17.00;;;;;23.94;55.58;100793.06;5051451;28;45301;-69
2021/06/27 08:18:11;;;;;;;;;21.75;19.75;;;;;23.95;55.02;100787.59;5053435;28;45505;-69
2021/06/27 08:20:37;;;;;;;;;21.25;20.00;;;;;23.94;55.77;100788.53;5053600;28;45454;-69
2021/06/27 08:23:02;;;;;;;;;22.25;21.50;;;;;24.00;54.78;100795.25;5053504;28;45434;-69
2021/06/27 08:25:27;;;;;;;;;27.00;24.50;;;;;23.99;55.29;100788.19;5051817;28;45503;-69
2021/06/27 08:27:53;;;;;;;;;24.00;21.00;;;;;24.07;55.15;100795.63;5053036;28;46160;-70
2021/06/27 08:30:19;;;;;;;;;22.50;19.00;;;;;24.12;54.96;100796.13;5053364;28;45615;-70
2021/06/27 08:32:46;;;;;;;;;20.00;18.00;;;;;24.09;54.76;100799.06;5052216;28;47101;-70
2021/06/27 08:35:17;;;;;;;;;22.75;20.50;;;;;24.09;54.67;100799.06;5068078;28;45377;-69
2021/06/27 08:37:44;;;;;;;;;23.75;22.25;;;;;24.04;54.69;100802.06;5052667;28;45383;-69
2021/06/27 08:40:11;;;;;;;;;24.00;20.00;;;;;23.99;54.11;100809.59;5052415;28;45430;-70
2021/06/27 08:42:38;;;;;;;;;24.50;22.75;;;;;23.96;54.94;100809.84;5053261;28;47217;-71
2021/06/27 08:45:06;;;;;;;;;31.50;27.75;;;;;23.93;54.18;100808.25;5053483;28;45287;-71
2021/06/27 08:47:34;;;;;;;;;20.00;19.00;;;;;23.93;54.95;100810.91;5051760;28;45240;-69
2021/06/27 08:50:00;;;;;;;;;24.50;22.00;;;;;24.00;54.36;100815.78;5052477;28;45451;-73
2021/06/27 08:52:25;;;;;;;;;21.75;18.75;;;;;24.05;54.53;100816.28;5052572;28;46010;-70
2021/06/27 08:54:52;;;;;;;;;22.00;20.25;;;;;24.07;53.87;100815.19;5052201;28;45446;-69
2021/06/27 08:57:19;;;;;;;;;21.75;21.75;;;;;24.09;53.50;100818.63;5053047;28;45462;-72
2021/06/27 08:59:45;;;;;;;;;21.50;18.50;;;;;24.09;53.98;100825.78;5054178;28;45865;-71
2021/06/27 09:02:11;;;;;;;;;25.25;22.00;;;;;24.05;53.51;100811.81;5054957;28;46198;-71
2021/06/27 09:04:38;;;;;;;;;22.75;19.25;;;;;23.98;53.78;100818.59;5055841;28;45538;-70
2021/06/27 09:07:28;;;;;;;;;22.50;20.25;;;;;23.89;53.96;100811.25;5055571;28;45495;-72
2021/06/27 09:10:09;;;;;;;;;22.75;22.75;;;;;23.81;54.66;100821.66;5039622;28;45522;-70
2021/06/27 09:12:58;;;;;;;;;22.00;22.00;;;;;23.71;54.47;100824.13;5053787;28;46062;-68
2021/06/27 09:15:32;;;;;;;;;22.00;21.50;;;;;23.65;55.13;100814.75;5051696;28;45240;-70
2021/06/27 09:17:57;;;;;;;;;29.50;23.75;;;;;23.65;55.88;100828.13;5055784;28;45453;-72
2021/06/27 09:20:24;;;;;;;;;22.75;20.00;;;;;23.68;55.59;100821.69;5056104;28;45264;-70
2021/06/27 09:22:51;;;;;;;;;19.25;19.25;;;;;23.67;55.21;100828.03;5055716;28;46922;-70
2021/06/27 09:25:20;;;;;;;;;23.75;23.00;;;;;23.65;55.71;100828.13;5055909;28;45423;-72
2021/06/27 09:27:56;;;;;;;;;23.50;23.25;;;;;23.64;56.14;100831.75;5055221;28;45409;-72
2021/06/27 09:30:22;;;;;;;;;26.00;22.00;;;;;23.57;55.83;100824.28;5051232;28;45347;-71
2021/06/27 09:32:53;;;;;;;;;23.75;23.00;;;;;23.51;56.02;100839.81;5055357;28;45347;-71
2021/06/27 09:35:40;;;;;;;;;26.50;23.75;;;;;23.44;57.48;100837.72;5055791;28;45463;-69
2021/06/27 09:38:24;;;;;;;;;24.00;21.00;;;;;23.37;57.14;100837.28;5054899;28;45392;-71
2021/06/27 09:40:53;;;;;;;;;25.75;23.00;;;;;23.35;57.08;100841.03;5055740;28;45425;-70
2021/06/27 09:43:20;;;;;;;;;22.00;19.50;;;;;23.37;57.11;100844.47;5055419;28;46241;-71
2021/06/27 09:45:56;;;;;;;;;30.50;23.75;;;;;23.36;57.72;100843.63;5054952;28;45253;-72
2021/06/27 09:48:22;;;;;;;;;28.25;24.75;;;;;23.35;57.82;100849.06;5051683;28;45427;-71
2021/06/27 09:50:48;;;;;;;;;23.00;23.00;;;;;23.32;57.97;100853.66;5055015;28;45327;-71
2021/06/27 09:53:31;;;;;;;;;26.00;23.00;;;;;23.34;57.92;100853.56;5054931;28;46335;-70
2021/06/27 09:55:58;;;;;;;;;24.25;20.50;;;;;23.39;58.60;100861.25;5055489;28;45597;-71
2021/06/27 09:58:24;;;;;;;;;26.00;24.75;;;;;23.32;58.17;100859.00;5054284;28;45404;-71
2021/06/27 10:00:49;;;;;;;;;26.25;23.75;;;;;23.31;58.65;100851.97;5055066;28;45639;-70
2021/06/27 10:03:14;;;;;;;;;22.75;21.00;;;;;23.36;58.34;100858.75;5055796;28;45420;-71
2021/06/27 10:05:40;;;;;;;;;26.50;23.75;;;;;23.42;57.88;100855.66;5054448;28;45477;-70
2021/06/27 10:08:05;;;;;;;;;26.00;24.25;;;;;23.48;58.26;100853.41;5053076;28;45440;-72
2021/06/27 10:10:31;;;;;;;;;27.00;24.75;;;;;23.56;58.13;100862.69;5054626;28;45257;-71
2021/06/27 10:12:56;;;;;;;;;36.00;30.75;;;;;23.63;58.00;100866.63;5052439;28;45940;-73
2021/06/27 10:15:22;;;;;;;;;28.00;26.25;;;;;23.62;57.70;100867.56;5055581;28;45306;-72
2021/06/27 10:17:47;;;;;;;;;31.25;27.50;;;;;23.56;58.31;100876.91;5054617;28;45446;-72
2021/06/27 10:20:15;;;;;;;;;30.50;26.50;;;;;23.59;57.98;100873.13;5054495;28;45446;-72
2021/06/27 10:22:41;;;;;;;;;27.25;27.25;;;;;23.61;57.73;100871.22;5054268;28;46229;-73
2021/06/27 10:25:13;;;;;;;;;23.25;22.75;;;;;23.55;58.09;100877.88;5053676;28;45633;-73
2021/06/27 10:27:39;;;;;;;;;30.75;29.50;;;;;23.56;59.03;100884.91;5052507;28;45494;-73
2021/06/27 10:30:08;;;;;;;;;19.25;18.25;;;;;23.60;57.75;100883.72;5054720;28;45523;-72
2021/06/27 10:32:42;;;;;;;;;26.50;26.50;;;;;23.65;58.09;100886.91;5054200;28;46124;-72
2021/06/27 10:35:10;;;;;;;;;28.25;25.50;;;;;23.73;58.15;100897.03;5054581;28;45481;-73
2021/06/27 10:37:38;;;;;;;;;21.00;20.75;;;;;23.66;57.40;100891.28;5054537;28;45392;-73
2021/06/27 10:40:10;;;;;;;;;23.50;20.50;;;;;23.61;58.00;100890.78;5054517;28;45639;-73
2021/06/27 10:42:47;;;;;;;;;22.25;21.00;;;;;23.63;58.00;100880.81;5053857;28;46901;-70
2021/06/27 10:45:13;;;;;;;;;26.00;23.75;;;;;23.73;57.39;100884.56;5053702;28;45406;-71
2021/06/27 10:47:38;;;;;;;;;26.75;21.50;;;;;23.78;56.56;100886.06;5053719;28;45530;-73
2021/06/27 10:50:08;;;;;;;;;25.00;24.00;;;;;23.78;56.73;100889.56;5053936;28;45526;-74
2021/06/27 10:52:53;;;;;;;;;24.25;20.75;;;;;23.88;56.73;100889.75;5053658;28;47384;-70
2021/06/27 10:55:23;;;;;;;;;21.75;19.00;;;;;23.86;56.11;100889.00;5053990;28;45490;-72
2021/06/27 10:57:57;;;;;;;;;20.50;16.75;;;;;23.84;55.95;100891.81;5052938;28;45394;-72
2021/06/27 11:00:26;;;;;;;;;21.75;21.00;;;;;23.82;56.84;100893.72;5054161;28;45301;-73
2021/06/27 11:02:51;;;;;;;;;25.25;22.00;;;;;23.80;57.02;100897.50;5053844;28;46318;-72
2021/06/27 11:05:29;;;;;;;;;18.50;18.50;;;;;23.75;55.77;100889.81;5053199;28;45360;-72
2021/06/27 11:07:59;;;;;;;;;17.75;16.25;;;;;23.68;56.26;100899.19;5053780;28;45380;-72